Aviation Digital Data Service (ADDS)

Output produced by TAFs form (2353 UTC 19 October 2017)
found at http://aviationweather.gov/adds/tafs/
 
KTCS 192328Z 2000/2024 27010KT P6SM VCTS BKN070CB BKN120 
     TEMPO 2000/2003 VRB25G40KT 2SM TSRA BKN040CB BKN100 
     FM200400 29005KT P6SM SCT080 BKN150 
     FM201200 VRB04KT P6SM SCT150 
     FM201800 18010KT P6SM FEW150 
     FM202100 22015G25KT P6SM SKC